MAS125 WMKK-YPPH
Flight info
| Callsign | MAS125 |
|---|---|
| Flight time | 5h 25m |
| Altitude | 33000 |
| Route | MITOS1D MITOS M630 BOBAG P501 ANITO B470 PKP L764 LAMOB B469 TOPIR L514 AVPAL Q38 JULIM |
| Aircraft | B738/M-SDE2E3FGHIRWXY/LB1 |
Departure
| Time | 2026-05-05 03:46 |
|---|---|
| Airport | Kuala Lumpur International Airport (WMKK) |
Arrival
| Time | 2026-05-05 09:11 |
|---|---|
| Airport | Perth International Airport (YPPH) |
| Time | Latitude | Longitude | Altitude | Speed | Heading |
|---|---|---|---|---|---|
| 2026-05-05 03:10 | 2.75116 | 101.70439 | 72 ft | 0 kts | 326° |
| 2026-05-05 03:32 | 2.75114 | 101.70440 | 62 ft | 3 kts | 326° |
| 2026-05-05 03:33 | 2.75092 | 101.70455 | 62 ft | 4 kts | 326° |
| 2026-05-05 03:33 | 2.75071 | 101.70469 | 64 ft | 4 kts | 320° |
| 2026-05-05 03:33 | 2.75059 | 101.70487 | 63 ft | 4 kts | 252° |
| 2026-05-05 03:33 | 2.75072 | 101.70510 | 65 ft | 4 kts | 236° |
| 2026-05-05 03:34 | 2.75075 | 101.70514 | 62 ft | 0 kts | 237° |
| 2026-05-05 03:36 | 2.75075 | 101.70513 | 62 ft | 1 kts | 237° |
| 2026-05-05 03:36 | 2.75064 | 101.70496 | 65 ft | 6 kts | 237° |
| 2026-05-05 03:37 | 2.75030 | 101.70445 | 68 ft | 11 kts | 237° |
| 2026-05-05 03:37 | 2.74983 | 101.70377 | 66 ft | 12 kts | 235° |
| 2026-05-05 03:37 | 2.74934 | 101.70305 | 72 ft | 15 kts | 237° |
| 2026-05-05 03:37 | 2.74874 | 101.70213 | 67 ft | 16 kts | 237° |
| 2026-05-05 03:38 | 2.74814 | 101.70122 | 67 ft | 15 kts | 229° |
| 2026-05-05 03:38 | 2.74721 | 101.70143 | 69 ft | 16 kts | 146° |
| 2026-05-05 03:38 | 2.74623 | 101.70210 | 56 ft | 19 kts | 146° |
| 2026-05-05 03:38 | 2.74519 | 101.70185 | 61 ft | 19 kts | 237° |
| 2026-05-05 03:39 | 2.74426 | 101.70091 | 61 ft | 21 kts | 185° |
| 2026-05-05 03:39 | 2.74293 | 101.70162 | 56 ft | 22 kts | 146° |
| 2026-05-05 03:39 | 2.74158 | 101.70252 | 57 ft | 24 kts | 146° |
| 2026-05-05 03:39 | 2.74022 | 101.70343 | 53 ft | 23 kts | 146° |
| 2026-05-05 03:40 | 2.73891 | 101.70430 | 56 ft | 22 kts | 146° |
| 2026-05-05 03:40 | 2.73764 | 101.70515 | 55 ft | 22 kts | 146° |
| 2026-05-05 03:40 | 2.73625 | 101.70608 | 57 ft | 26 kts | 146° |
| 2026-05-05 03:40 | 2.73468 | 101.70713 | 55 ft | 27 kts | 146° |
| 2026-05-05 03:41 | 2.73329 | 101.70803 | 56 ft | 20 kts | 160° |
| 2026-05-05 03:41 | 2.73202 | 101.70781 | 55 ft | 19 kts | 155° |
| 2026-05-05 03:41 | 2.73085 | 101.70857 | 53 ft | 22 kts | 146° |
| 2026-05-05 03:41 | 2.72946 | 101.70953 | 52 ft | 26 kts | 145° |
| 2026-05-05 03:42 | 2.72792 | 101.71056 | 51 ft | 26 kts | 147° |
| 2026-05-05 03:42 | 2.72645 | 101.71152 | 50 ft | 24 kts | 146° |
| 2026-05-05 03:42 | 2.72509 | 101.71244 | 49 ft | 23 kts | 146° |
| 2026-05-05 03:42 | 2.72380 | 101.71331 | 56 ft | 22 kts | 146° |
| 2026-05-05 03:43 | 2.72251 | 101.71417 | 52 ft | 22 kts | 146° |
| 2026-05-05 03:43 | 2.72119 | 101.71505 | 52 ft | 25 kts | 146° |
| 2026-05-05 03:43 | 2.71972 | 101.71603 | 51 ft | 25 kts | 146° |
| 2026-05-05 03:43 | 2.71831 | 101.71697 | 50 ft | 24 kts | 146° |
| 2026-05-05 03:44 | 2.71698 | 101.71788 | 50 ft | 23 kts | 146° |
| 2026-05-05 03:44 | 2.71569 | 101.71874 | 51 ft | 22 kts | 146° |
| 2026-05-05 03:44 | 2.71442 | 101.71932 | 54 ft | 19 kts | 198° |
| 2026-05-05 03:44 | 2.71357 | 101.71834 | 54 ft | 15 kts | 234° |
| 2026-05-05 03:45 | 2.71359 | 101.71778 | 52 ft | 9 kts | 328° |
| 2026-05-05 03:45 | 2.71443 | 101.71728 | 50 ft | 31 kts | 328° |
| 2026-05-05 03:45 | 2.71819 | 101.71477 | 49 ft | 98 kts | 326° |
| 2026-05-05 03:45 | 2.72551 | 101.70985 | 50 ft | 154 kts | 326° |
| 2026-05-05 03:46 | 2.73556 | 101.70312 | 148 ft | 192 kts | 326° |
| 2026-05-05 03:46 | 2.74668 | 101.69573 | 865 ft | 191 kts | 326° |
| 2026-05-05 03:46 | 2.75748 | 101.68769 | 1507 ft | 198 kts | 319° |
| 2026-05-05 03:46 | 2.76762 | 101.67785 | 1999 ft | 211 kts | 310° |
| 2026-05-05 03:47 | 2.77755 | 101.66600 | 2184 ft | 233 kts | 309° |
| 2026-05-05 03:47 | 2.78819 | 101.65315 | 2525 ft | 245 kts | 309° |
| 2026-05-05 03:47 | 2.79938 | 101.63969 | 2841 ft | 261 kts | 310° |
| 2026-05-05 03:47 | 2.81126 | 101.62544 | 3350 ft | 271 kts | 310° |
| 2026-05-05 03:48 | 2.82333 | 101.61075 | 4055 ft | 275 kts | 305° |
| 2026-05-05 03:48 | 2.83080 | 101.59311 | 4739 ft | 280 kts | 278° |
| 2026-05-05 03:48 | 2.82937 | 101.57376 | 5465 ft | 281 kts | 250° |
| 2026-05-05 03:48 | 2.81947 | 101.55730 | 6162 ft | 283 kts | 223° |
| 2026-05-05 03:49 | 2.80283 | 101.54705 | 6763 ft | 285 kts | 195° |
| 2026-05-05 03:49 | 2.78332 | 101.54428 | 7435 ft | 284 kts | 180° |
| 2026-05-05 03:49 | 2.76347 | 101.54471 | 8101 ft | 286 kts | 177° |
| 2026-05-05 03:49 | 2.74348 | 101.54547 | 8753 ft | 289 kts | 177° |
| 2026-05-05 03:50 | 2.72326 | 101.54609 | 9415 ft | 292 kts | 178° |
| 2026-05-05 03:50 | 2.70300 | 101.54803 | 10026 ft | 294 kts | 163° |
| 2026-05-05 03:50 | 2.68353 | 101.55520 | 10378 ft | 308 kts | 158° |
| 2026-05-05 03:50 | 2.66296 | 101.56331 | 10519 ft | 328 kts | 158° |
| 2026-05-05 03:51 | 2.64107 | 101.57169 | 10690 ft | 345 kts | 158° |
| 2026-05-05 03:51 | 2.61832 | 101.58025 | 11081 ft | 353 kts | 159° |
| 2026-05-05 03:51 | 2.59514 | 101.58888 | 11590 ft | 357 kts | 159° |
| 2026-05-05 03:51 | 2.57171 | 101.59757 | 12147 ft | 360 kts | 159° |
| 2026-05-05 03:52 | 2.54815 | 101.60630 | 12699 ft | 362 kts | 159° |
| 2026-05-05 03:52 | 2.52440 | 101.61512 | 13240 ft | 365 kts | 159° |
| 2026-05-05 03:52 | 2.50049 | 101.62399 | 13767 ft | 368 kts | 158° |
| 2026-05-05 03:52 | 2.47636 | 101.63295 | 14232 ft | 371 kts | 158° |
| 2026-05-05 03:53 | 2.45204 | 101.64198 | 14711 ft | 373 kts | 158° |
| 2026-05-05 03:53 | 2.42795 | 101.65093 | 15172 ft | 375 kts | 158° |
| 2026-05-05 03:53 | 2.40337 | 101.66006 | 15636 ft | 378 kts | 158° |
| 2026-05-05 03:53 | 2.37868 | 101.66950 | 16097 ft | 380 kts | 154° |
| 2026-05-05 03:54 | 2.35557 | 101.68243 | 16534 ft | 381 kts | 144° |
| 2026-05-05 03:54 | 2.33503 | 101.69928 | 16976 ft | 382 kts | 134° |
| 2026-05-05 03:54 | 2.31624 | 101.71821 | 17422 ft | 384 kts | 133° |
| 2026-05-05 03:54 | 2.29783 | 101.73724 | 17845 ft | 387 kts | 133° |
| 2026-05-05 03:55 | 2.27905 | 101.75668 | 18248 ft | 389 kts | 133° |
| 2026-05-05 03:55 | 2.26010 | 101.77620 | 18612 ft | 392 kts | 133° |
| 2026-05-05 03:55 | 2.24100 | 101.79575 | 18988 ft | 394 kts | 133° |
| 2026-05-05 03:55 | 2.22179 | 101.81532 | 19353 ft | 396 kts | 133° |
| 2026-05-05 03:56 | 2.20239 | 101.83502 | 19701 ft | 398 kts | 133° |
| 2026-05-05 03:56 | 2.18294 | 101.85474 | 20047 ft | 400 kts | 133° |
| 2026-05-05 03:56 | 2.16330 | 101.87465 | 20393 ft | 403 kts | 133° |
| 2026-05-05 03:56 | 2.14363 | 101.89460 | 20733 ft | 405 kts | 133° |
| 2026-05-05 03:57 | 2.12380 | 101.91470 | 21071 ft | 407 kts | 133° |
| 2026-05-05 03:57 | 2.10387 | 101.93491 | 21403 ft | 409 kts | 133° |
| 2026-05-05 03:57 | 2.08381 | 101.95525 | 21735 ft | 411 kts | 133° |
| 2026-05-05 03:57 | 2.06364 | 101.97569 | 22047 ft | 413 kts | 133° |
| 2026-05-05 03:58 | 2.04393 | 101.99667 | 22350 ft | 414 kts | 127° |
| 2026-05-05 03:58 | 2.02745 | 102.02031 | 22653 ft | 415 kts | 121° |
| 2026-05-05 03:58 | 2.01212 | 102.04480 | 22963 ft | 417 kts | 121° |
| 2026-05-05 03:58 | 1.99657 | 102.06942 | 23253 ft | 419 kts | 121° |
| 2026-05-05 03:59 | 1.98082 | 102.09391 | 23535 ft | 421 kts | 121° |
| 2026-05-05 03:59 | 1.96477 | 102.11848 | 23769 ft | 423 kts | 122° |
| 2026-05-05 03:59 | 1.94864 | 102.14268 | 24026 ft | 424 kts | 122° |
| 2026-05-05 03:59 | 1.93216 | 102.16720 | 24265 ft | 426 kts | 123° |
| 2026-05-05 04:00 | 1.91560 | 102.19181 | 24501 ft | 427 kts | 123° |
| 2026-05-05 04:00 | 1.89900 | 102.21649 | 24739 ft | 428 kts | 123° |
| 2026-05-05 04:00 | 1.88237 | 102.24127 | 24973 ft | 430 kts | 123° |
| 2026-05-05 04:00 | 1.86569 | 102.26616 | 25202 ft | 431 kts | 123° |
| 2026-05-05 04:01 | 1.84898 | 102.29111 | 25433 ft | 433 kts | 122° |
| 2026-05-05 04:01 | 1.83223 | 102.31615 | 25668 ft | 434 kts | 122° |
| 2026-05-05 04:01 | 1.81533 | 102.34140 | 25896 ft | 435 kts | 123° |
| 2026-05-05 04:01 | 1.79844 | 102.36665 | 26094 ft | 437 kts | 123° |
| 2026-05-05 04:02 | 1.78175 | 102.39161 | 26318 ft | 438 kts | 123° |
| 2026-05-05 04:02 | 1.76453 | 102.41734 | 26534 ft | 440 kts | 123° |
| 2026-05-05 04:02 | 1.74776 | 102.44241 | 26724 ft | 441 kts | 123° |
| 2026-05-05 04:02 | 1.73065 | 102.46798 | 26923 ft | 443 kts | 123° |
| 2026-05-05 04:03 | 1.71345 | 102.49368 | 27130 ft | 444 kts | 123° |
| 2026-05-05 04:03 | 1.69627 | 102.51935 | 27329 ft | 446 kts | 123° |
| 2026-05-05 04:03 | 1.67898 | 102.54519 | 27543 ft | 447 kts | 123° |
| 2026-05-05 04:03 | 1.66168 | 102.57104 | 27714 ft | 448 kts | 123° |
| 2026-05-05 04:04 | 1.64425 | 102.59708 | 27909 ft | 450 kts | 123° |
| 2026-05-05 04:04 | 1.62686 | 102.62306 | 28082 ft | 451 kts | 123° |
| 2026-05-05 04:04 | 1.60940 | 102.64915 | 28269 ft | 452 kts | 123° |
| 2026-05-05 04:04 | 1.59191 | 102.67528 | 28442 ft | 453 kts | 123° |
| 2026-05-05 04:05 | 1.57457 | 102.70118 | 28621 ft | 455 kts | 123° |
| 2026-05-05 04:05 | 1.55692 | 102.72755 | 28785 ft | 456 kts | 123° |
| 2026-05-05 04:05 | 1.53928 | 102.75391 | 28980 ft | 457 kts | 123° |
| 2026-05-05 04:05 | 1.52161 | 102.78030 | 29227 ft | 456 kts | 123° |
| 2026-05-05 04:06 | 1.50404 | 102.80654 | 29476 ft | 455 kts | 123° |
| 2026-05-05 04:06 | 1.48640 | 102.83290 | 29720 ft | 455 kts | 123° |
| 2026-05-05 04:06 | 1.46880 | 102.85919 | 29906 ft | 456 kts | 123° |
| 2026-05-05 04:06 | 1.45710 | 102.87667 | 30021 ft | 456 kts | 123° |
| 2026-05-05 04:07 | 1.43352 | 102.91190 | 30312 ft | 455 kts | 123° |
| 2026-05-05 04:07 | 1.42185 | 102.92933 | 30473 ft | 454 kts | 123° |
| 2026-05-05 04:07 | 1.40435 | 102.95548 | 30716 ft | 453 kts | 123° |
| 2026-05-05 04:07 | 1.38679 | 102.98169 | 30928 ft | 452 kts | 123° |
| 2026-05-05 04:08 | 1.36927 | 103.00787 | 31135 ft | 452 kts | 123° |
| 2026-05-05 04:08 | 1.35183 | 103.03397 | 31353 ft | 451 kts | 123° |
| 2026-05-05 04:08 | 1.32880 | 103.06845 | 31665 ft | 450 kts | 123° |
| 2026-05-05 04:08 | 1.31708 | 103.08600 | 31815 ft | 449 kts | 123° |
| 2026-05-05 04:09 | 1.29971 | 103.11200 | 32025 ft | 449 kts | 123° |
| 2026-05-05 04:09 | 1.28263 | 103.13758 | 32204 ft | 449 kts | 123° |
| 2026-05-05 04:09 | 1.26529 | 103.16354 | 32401 ft | 449 kts | 123° |
| 2026-05-05 04:09 | 1.24792 | 103.18955 | 32598 ft | 449 kts | 123° |
| 2026-05-05 04:10 | 1.23055 | 103.21555 | 32828 ft | 448 kts | 123° |
| 2026-05-05 04:10 | 1.21324 | 103.24146 | 32863 ft | 450 kts | 123° |
| 2026-05-05 04:10 | 1.17849 | 103.29349 | 32882 ft | 449 kts | 123° |
| 2026-05-05 04:11 | 1.14411 | 103.34495 | 32887 ft | 446 kts | 123° |
| 2026-05-05 04:11 | 1.10974 | 103.39640 | 32891 ft | 444 kts | 123° |
| 2026-05-05 04:12 | 1.07543 | 103.44777 | 32891 ft | 443 kts | 123° |
| 2026-05-05 04:12 | 1.04091 | 103.49872 | 32890 ft | 443 kts | 126° |
| 2026-05-05 04:13 | 0.99919 | 103.54398 | 32895 ft | 444 kts | 134° |
| 2026-05-05 04:13 | 0.95562 | 103.58786 | 32902 ft | 445 kts | 134° |
| 2026-05-05 04:14 | 0.91205 | 103.63225 | 32899 ft | 448 kts | 133° |
| 2026-05-05 04:14 | 0.86856 | 103.67707 | 32897 ft | 450 kts | 133° |
| 2026-05-05 04:15 | 0.82526 | 103.72183 | 32897 ft | 452 kts | 133° |
| 2026-05-05 04:15 | 0.78146 | 103.76711 | 32896 ft | 453 kts | 133° |
| 2026-05-05 04:16 | 0.73760 | 103.81243 | 32900 ft | 454 kts | 133° |
| 2026-05-05 04:16 | 0.69372 | 103.85776 | 32896 ft | 453 kts | 133° |
| 2026-05-05 04:17 | 0.64986 | 103.90308 | 32897 ft | 453 kts | 133° |
| 2026-05-05 04:17 | 0.60612 | 103.94827 | 32900 ft | 451 kts | 133° |
| 2026-05-05 04:18 | 0.56273 | 103.99310 | 32902 ft | 450 kts | 133° |
| 2026-05-05 04:18 | 0.51923 | 104.03799 | 32905 ft | 449 kts | 133° |
| 2026-05-05 04:19 | 0.47577 | 104.08285 | 32902 ft | 448 kts | 133° |
| 2026-05-05 04:19 | 0.43243 | 104.12759 | 32902 ft | 447 kts | 133° |
| 2026-05-05 04:20 | 0.38915 | 104.17228 | 32904 ft | 447 kts | 133° |
| 2026-05-05 04:20 | 0.34592 | 104.21692 | 32901 ft | 447 kts | 133° |
| 2026-05-05 04:21 | 0.30294 | 104.26128 | 32902 ft | 447 kts | 133° |
| 2026-05-05 04:21 | 0.25958 | 104.30602 | 32905 ft | 447 kts | 133° |
| 2026-05-05 04:22 | 0.21629 | 104.35071 | 32907 ft | 448 kts | 133° |
| 2026-05-05 04:22 | 0.17295 | 104.39547 | 32904 ft | 448 kts | 133° |
| 2026-05-05 04:23 | 0.12959 | 104.44024 | 32902 ft | 448 kts | 133° |
| 2026-05-05 04:23 | 0.08644 | 104.48480 | 32901 ft | 449 kts | 133° |
| 2026-05-05 04:24 | 0.04298 | 104.52967 | 32898 ft | 449 kts | 133° |
| 2026-05-05 04:25 | -0.02217 | 104.59695 | 32896 ft | 449 kts | 133° |
| 2026-05-05 04:25 | -0.06568 | 104.64187 | 32903 ft | 449 kts | 133° |
| 2026-05-05 04:26 | -0.10923 | 104.68684 | 32900 ft | 450 kts | 133° |
| 2026-05-05 04:26 | -0.15277 | 104.73181 | 32902 ft | 450 kts | 133° |
| 2026-05-05 04:27 | -0.19626 | 104.77671 | 32901 ft | 450 kts | 133° |
| 2026-05-05 04:27 | -0.23973 | 104.82162 | 32900 ft | 449 kts | 133° |
| 2026-05-05 04:28 | -0.28356 | 104.86607 | 32898 ft | 449 kts | 137° |
| 2026-05-05 04:28 | -0.33431 | 104.90250 | 32903 ft | 450 kts | 145° |
| 2026-05-05 04:29 | -0.38620 | 104.93682 | 32897 ft | 450 kts | 146° |
| 2026-05-05 04:29 | -0.43833 | 104.97159 | 32897 ft | 450 kts | 145° |
| 2026-05-05 04:30 | -0.49021 | 105.00655 | 32905 ft | 450 kts | 145° |
| 2026-05-05 04:30 | -0.54218 | 105.04171 | 32907 ft | 451 kts | 145° |
| 2026-05-05 04:31 | -0.59418 | 105.07692 | 32905 ft | 451 kts | 145° |
| 2026-05-05 04:31 | -0.64625 | 105.11216 | 32902 ft | 452 kts | 145° |
| 2026-05-05 04:32 | -0.69805 | 105.14722 | 32901 ft | 452 kts | 145° |
| 2026-05-05 04:32 | -0.75017 | 105.18248 | 32901 ft | 452 kts | 145° |
| 2026-05-05 04:33 | -0.80234 | 105.21779 | 32901 ft | 452 kts | 145° |
| 2026-05-05 04:33 | -0.85450 | 105.25308 | 32902 ft | 452 kts | 145° |
| 2026-05-05 04:34 | -0.90662 | 105.28836 | 32902 ft | 452 kts | 145° |
| 2026-05-05 04:34 | -0.95876 | 105.32365 | 32899 ft | 452 kts | 145° |
| 2026-05-05 04:35 | -1.01084 | 105.35890 | 32893 ft | 452 kts | 145° |
| 2026-05-05 04:35 | -1.06253 | 105.39388 | 32899 ft | 451 kts | 145° |
| 2026-05-05 04:36 | -1.11448 | 105.42904 | 32898 ft | 451 kts | 145° |
| 2026-05-05 04:36 | -1.16647 | 105.46424 | 32902 ft | 451 kts | 145° |
| 2026-05-05 04:37 | -1.21843 | 105.49941 | 32900 ft | 451 kts | 145° |
| 2026-05-05 04:37 | -1.27039 | 105.53459 | 32898 ft | 451 kts | 145° |
| 2026-05-05 04:38 | -1.32246 | 105.56984 | 32897 ft | 451 kts | 145° |
| 2026-05-05 04:38 | -1.37444 | 105.60503 | 32896 ft | 452 kts | 145° |
| 2026-05-05 04:39 | -1.42623 | 105.64010 | 32896 ft | 452 kts | 145° |
| 2026-05-05 04:39 | -1.47828 | 105.67534 | 32900 ft | 452 kts | 145° |
| 2026-05-05 04:40 | -1.53047 | 105.71068 | 32897 ft | 453 kts | 145° |
| 2026-05-05 04:40 | -1.58271 | 105.74606 | 32897 ft | 454 kts | 145° |
| 2026-05-05 04:41 | -1.63503 | 105.78149 | 32898 ft | 455 kts | 145° |
| 2026-05-05 04:41 | -1.68751 | 105.81703 | 32894 ft | 455 kts | 145° |
| 2026-05-05 04:42 | -1.73994 | 105.85255 | 32891 ft | 456 kts | 145° |
| 2026-05-05 04:42 | -1.79255 | 105.88818 | 32891 ft | 456 kts | 145° |
| 2026-05-05 04:43 | -1.84470 | 105.92351 | 32895 ft | 456 kts | 145° |
| 2026-05-05 04:43 | -1.89722 | 105.95910 | 32884 ft | 455 kts | 145° |
| 2026-05-05 04:44 | -1.94964 | 105.99462 | 32896 ft | 454 kts | 145° |
| 2026-05-05 04:44 | -2.00194 | 106.03005 | 32896 ft | 453 kts | 145° |
| 2026-05-05 04:45 | -2.05413 | 106.06543 | 32886 ft | 452 kts | 145° |
| 2026-05-05 04:45 | -2.10616 | 106.10070 | 32894 ft | 451 kts | 145° |
| 2026-05-05 04:46 | -2.15819 | 106.13498 | 32881 ft | 451 kts | 151° |
| 2026-05-05 04:46 | -2.21686 | 106.15692 | 32899 ft | 450 kts | 164° |
| 2026-05-05 04:47 | -2.27754 | 106.17285 | 32889 ft | 451 kts | 164° |
| 2026-05-05 04:47 | -2.33831 | 106.18883 | 32894 ft | 452 kts | 164° |
| 2026-05-05 04:48 | -2.39917 | 106.20519 | 32898 ft | 453 kts | 164° |
| 2026-05-05 04:48 | -2.46006 | 106.22174 | 32884 ft | 454 kts | 163° |
| 2026-05-05 04:49 | -2.52090 | 106.23832 | 32891 ft | 456 kts | 163° |
| 2026-05-05 04:49 | -2.58218 | 106.25503 | 32891 ft | 457 kts | 163° |
| 2026-05-05 04:50 | -2.64359 | 106.27175 | 32897 ft | 458 kts | 163° |
| 2026-05-05 04:50 | -2.70510 | 106.28850 | 32895 ft | 458 kts | 163° |
| 2026-05-05 04:51 | -2.76680 | 106.30531 | 32895 ft | 459 kts | 163° |
| 2026-05-05 04:51 | -2.82810 | 106.32201 | 32893 ft | 459 kts | 163° |
| 2026-05-05 04:52 | -2.88982 | 106.33882 | 32880 ft | 459 kts | 163° |
| 2026-05-05 04:52 | -2.95136 | 106.35559 | 32904 ft | 458 kts | 163° |
| 2026-05-05 04:53 | -3.01279 | 106.37233 | 32883 ft | 457 kts | 163° |
| 2026-05-05 04:53 | -3.07407 | 106.38903 | 32887 ft | 455 kts | 163° |
| 2026-05-05 04:54 | -3.13513 | 106.40567 | 32885 ft | 453 kts | 163° |
| 2026-05-05 04:54 | -3.18560 | 106.41943 | 32887 ft | 452 kts | 163° |
| 2026-05-05 04:55 | -3.25640 | 106.43873 | 32887 ft | 450 kts | 163° |
| 2026-05-05 04:55 | -3.31633 | 106.45508 | 32892 ft | 449 kts | 163° |
| 2026-05-05 04:56 | -3.37663 | 106.47152 | 32898 ft | 449 kts | 163° |
| 2026-05-05 04:56 | -3.43693 | 106.48797 | 32892 ft | 449 kts | 163° |
| 2026-05-05 04:57 | -3.49716 | 106.50440 | 32893 ft | 449 kts | 163° |
| 2026-05-05 04:57 | -3.55763 | 106.52090 | 32895 ft | 450 kts | 163° |
| 2026-05-05 04:58 | -3.60801 | 106.53464 | 32896 ft | 451 kts | 163° |
| 2026-05-05 04:58 | -3.66866 | 106.55119 | 32891 ft | 452 kts | 163° |
| 2026-05-05 04:59 | -3.72952 | 106.56781 | 32905 ft | 454 kts | 163° |
| 2026-05-05 04:59 | -3.79068 | 106.58451 | 32894 ft | 456 kts | 163° |
| 2026-05-05 05:00 | -3.85163 | 106.60115 | 32890 ft | 458 kts | 163° |
| 2026-05-05 05:00 | -3.91327 | 106.61798 | 32905 ft | 459 kts | 163° |
| 2026-05-05 05:01 | -3.97515 | 106.63487 | 32897 ft | 461 kts | 163° |
| 2026-05-05 05:01 | -4.03707 | 106.65178 | 32896 ft | 461 kts | 163° |
| 2026-05-05 05:02 | -4.09898 | 106.66870 | 32896 ft | 461 kts | 163° |
| 2026-05-05 05:02 | -4.16080 | 106.68559 | 32896 ft | 460 kts | 163° |
| 2026-05-05 05:03 | -4.22219 | 106.70236 | 32888 ft | 460 kts | 163° |
| 2026-05-05 05:03 | -4.28378 | 106.71920 | 32891 ft | 459 kts | 163° |
| 2026-05-05 05:04 | -4.34544 | 106.73605 | 32888 ft | 458 kts | 163° |
| 2026-05-05 05:04 | -4.40701 | 106.75288 | 32892 ft | 458 kts | 163° |
| 2026-05-05 05:05 | -4.46847 | 106.76969 | 32885 ft | 457 kts | 163° |
| 2026-05-05 05:05 | -4.52982 | 106.78647 | 32894 ft | 457 kts | 163° |
| 2026-05-05 05:06 | -4.59073 | 106.80314 | 32894 ft | 456 kts | 163° |
| 2026-05-05 05:06 | -4.65204 | 106.81991 | 32883 ft | 456 kts | 163° |
| 2026-05-05 05:07 | -4.71328 | 106.83668 | 32899 ft | 456 kts | 163° |
| 2026-05-05 05:07 | -4.77459 | 106.85340 | 32901 ft | 456 kts | 163° |
| 2026-05-05 05:08 | -4.83591 | 106.87005 | 32896 ft | 456 kts | 163° |
| 2026-05-05 05:08 | -4.89729 | 106.88671 | 32893 ft | 456 kts | 163° |
| 2026-05-05 05:09 | -4.95865 | 106.90338 | 32891 ft | 456 kts | 163° |
| 2026-05-05 05:09 | -5.01951 | 106.91993 | 32911 ft | 457 kts | 163° |
| 2026-05-05 05:10 | -5.08123 | 106.93672 | 32879 ft | 460 kts | 163° |
| 2026-05-05 05:10 | -5.14301 | 106.95353 | 32882 ft | 459 kts | 163° |
| 2026-05-05 05:11 | -5.20452 | 106.97026 | 32887 ft | 458 kts | 163° |
| 2026-05-05 05:11 | -5.26610 | 106.98702 | 32893 ft | 457 kts | 163° |
| 2026-05-05 05:12 | -5.32713 | 107.00363 | 32887 ft | 456 kts | 163° |
| 2026-05-05 05:12 | -5.38839 | 107.02031 | 32896 ft | 456 kts | 163° |
| 2026-05-05 05:13 | -5.44964 | 107.03699 | 32889 ft | 456 kts | 163° |
| 2026-05-05 05:13 | -5.51075 | 107.05364 | 32891 ft | 455 kts | 163° |
| 2026-05-05 05:14 | -5.57202 | 107.07033 | 32892 ft | 455 kts | 163° |
| 2026-05-05 05:14 | -5.63326 | 107.08702 | 32888 ft | 455 kts | 163° |
| 2026-05-05 05:15 | -5.69439 | 107.10368 | 32888 ft | 455 kts | 163° |
| 2026-05-05 05:15 | -5.75544 | 107.12032 | 32897 ft | 455 kts | 163° |
| 2026-05-05 05:16 | -5.81619 | 107.13689 | 32897 ft | 455 kts | 163° |
| 2026-05-05 05:16 | -5.87730 | 107.15355 | 32886 ft | 455 kts | 163° |
| 2026-05-05 05:17 | -5.93834 | 107.17020 | 32881 ft | 454 kts | 163° |
| 2026-05-05 05:17 | -5.99928 | 107.18683 | 32887 ft | 453 kts | 163° |
| 2026-05-05 05:18 | -6.06022 | 107.20346 | 32888 ft | 453 kts | 163° |
| 2026-05-05 05:18 | -6.12105 | 107.22007 | 32884 ft | 452 kts | 163° |
| 2026-05-05 05:19 | -6.18171 | 107.23663 | 32888 ft | 451 kts | 163° |
| 2026-05-05 05:19 | -6.24233 | 107.25319 | 32884 ft | 451 kts | 163° |
| 2026-05-05 05:20 | -6.30284 | 107.26972 | 32886 ft | 451 kts | 163° |
| 2026-05-05 05:20 | -6.36305 | 107.28617 | 32888 ft | 451 kts | 163° |
| 2026-05-05 05:21 | -6.42360 | 107.30272 | 32893 ft | 451 kts | 163° |
| 2026-05-05 05:21 | -6.48417 | 107.31928 | 32904 ft | 451 kts | 163° |
| 2026-05-05 05:22 | -6.54484 | 107.33587 | 32905 ft | 452 kts | 163° |
| 2026-05-05 05:22 | -6.60572 | 107.35252 | 32913 ft | 453 kts | 163° |
| 2026-05-05 05:23 | -6.66614 | 107.36906 | 32903 ft | 454 kts | 163° |
| 2026-05-05 05:23 | -6.72715 | 107.38575 | 32924 ft | 454 kts | 163° |
| 2026-05-05 05:24 | -6.78825 | 107.40247 | 32923 ft | 455 kts | 163° |
| 2026-05-05 05:24 | -6.84953 | 107.41925 | 32942 ft | 456 kts | 163° |
| 2026-05-05 05:25 | -6.91087 | 107.43605 | 32938 ft | 457 kts | 163° |
| 2026-05-05 05:25 | -6.97231 | 107.45288 | 32945 ft | 457 kts | 163° |
| 2026-05-05 05:26 | -7.03377 | 107.46973 | 32944 ft | 458 kts | 163° |
| 2026-05-05 05:26 | -7.09532 | 107.48659 | 32945 ft | 458 kts | 163° |
| 2026-05-05 05:27 | -7.15636 | 107.50333 | 32954 ft | 458 kts | 163° |
| 2026-05-05 05:27 | -7.24850 | 107.52860 | 32939 ft | 457 kts | 164° |
| 2026-05-05 05:28 | -7.30996 | 107.54547 | 32944 ft | 457 kts | 164° |
| 2026-05-05 05:28 | -7.37126 | 107.56229 | 32936 ft | 456 kts | 164° |
| 2026-05-05 05:29 | -7.43252 | 107.57910 | 32937 ft | 455 kts | 164° |
| 2026-05-05 05:29 | -7.49328 | 107.59579 | 32929 ft | 455 kts | 164° |
| 2026-05-05 05:30 | -7.55441 | 107.61258 | 32910 ft | 455 kts | 164° |
| 2026-05-05 05:30 | -7.61551 | 107.62937 | 32921 ft | 455 kts | 164° |
| 2026-05-05 05:31 | -7.67655 | 107.64615 | 32894 ft | 455 kts | 164° |
| 2026-05-05 05:31 | -7.73767 | 107.66295 | 32895 ft | 454 kts | 164° |
| 2026-05-05 05:32 | -7.79869 | 107.67973 | 32896 ft | 454 kts | 164° |
| 2026-05-05 05:32 | -7.85969 | 107.69651 | 32886 ft | 454 kts | 164° |
| 2026-05-05 05:33 | -7.92025 | 107.71318 | 32881 ft | 454 kts | 164° |
| 2026-05-05 05:33 | -7.98136 | 107.73000 | 32886 ft | 454 kts | 165° |
| 2026-05-05 05:34 | -8.04232 | 107.74679 | 32871 ft | 454 kts | 165° |
| 2026-05-05 05:34 | -8.10323 | 107.76357 | 32876 ft | 454 kts | 165° |
| 2026-05-05 05:35 | -8.16415 | 107.78035 | 32874 ft | 454 kts | 165° |
| 2026-05-05 05:35 | -8.22506 | 107.79714 | 32870 ft | 454 kts | 165° |
| 2026-05-05 05:36 | -8.28599 | 107.81394 | 32879 ft | 454 kts | 165° |
| 2026-05-05 05:36 | -8.34693 | 107.83077 | 32878 ft | 454 kts | 165° |
| 2026-05-05 05:37 | -8.40781 | 107.84802 | 32882 ft | 454 kts | 164° |
| 2026-05-05 05:37 | -8.46840 | 107.86537 | 32873 ft | 455 kts | 164° |
| 2026-05-05 05:38 | -8.52936 | 107.88281 | 32886 ft | 455 kts | 165° |
| 2026-05-05 05:38 | -8.59034 | 107.90022 | 32881 ft | 455 kts | 164° |
| 2026-05-05 05:39 | -8.65130 | 107.91761 | 32882 ft | 455 kts | 164° |
| 2026-05-05 05:39 | -8.71198 | 107.93493 | 32874 ft | 456 kts | 165° |
| 2026-05-05 05:40 | -8.77311 | 107.95238 | 32881 ft | 456 kts | 165° |
| 2026-05-05 05:40 | -8.83429 | 107.96986 | 32899 ft | 457 kts | 165° |
| 2026-05-05 05:41 | -8.89555 | 107.98736 | 32886 ft | 458 kts | 165° |
| 2026-05-05 05:41 | -8.95682 | 108.00487 | 32887 ft | 458 kts | 165° |
| 2026-05-05 05:42 | -9.01829 | 108.02245 | 32880 ft | 459 kts | 166° |
| 2026-05-05 05:42 | -9.07974 | 108.04002 | 32895 ft | 459 kts | 165° |
| 2026-05-05 05:43 | -9.13081 | 108.05463 | 32891 ft | 460 kts | 165° |
| 2026-05-05 05:43 | -9.20248 | 108.07515 | 32886 ft | 460 kts | 166° |
| 2026-05-05 05:44 | -9.26413 | 108.09280 | 32883 ft | 460 kts | 165° |
| 2026-05-05 05:44 | -9.31537 | 108.10747 | 32888 ft | 460 kts | 165° |
| 2026-05-05 05:45 | -9.38725 | 108.12807 | 32892 ft | 459 kts | 165° |
| 2026-05-05 05:45 | -9.43845 | 108.14275 | 32885 ft | 459 kts | 165° |
| 2026-05-05 05:46 | -9.49993 | 108.16037 | 32895 ft | 458 kts | 165° |
| 2026-05-05 05:46 | -9.56118 | 108.17794 | 32882 ft | 457 kts | 165° |
| 2026-05-05 05:47 | -9.63224 | 108.19834 | 32898 ft | 456 kts | 165° |
| 2026-05-05 05:47 | -9.68347 | 108.21304 | 32882 ft | 456 kts | 165° |
| 2026-05-05 05:48 | -9.74411 | 108.23045 | 32880 ft | 455 kts | 165° |
| 2026-05-05 05:48 | -9.80518 | 108.24800 | 32889 ft | 456 kts | 166° |
| 2026-05-05 05:49 | -9.86628 | 108.26555 | 32888 ft | 456 kts | 165° |
| 2026-05-05 05:49 | -9.92747 | 108.28314 | 32895 ft | 458 kts | 166° |
| 2026-05-05 05:50 | -9.98888 | 108.30080 | 32905 ft | 459 kts | 165° |
| 2026-05-05 05:50 | -10.05041 | 108.31851 | 32887 ft | 460 kts | 166° |
| 2026-05-05 05:51 | -10.11180 | 108.33618 | 32887 ft | 462 kts | 166° |
| 2026-05-05 05:51 | -10.17370 | 108.35400 | 32893 ft | 463 kts | 166° |
| 2026-05-05 05:52 | -10.23578 | 108.37188 | 32896 ft | 464 kts | 166° |
| 2026-05-05 05:52 | -10.29805 | 108.38983 | 32889 ft | 465 kts | 166° |
| 2026-05-05 05:53 | -10.36045 | 108.40782 | 32898 ft | 466 kts | 166° |
| 2026-05-05 05:53 | -10.42288 | 108.42582 | 32893 ft | 466 kts | 166° |
| 2026-05-05 05:54 | -10.48542 | 108.44387 | 32893 ft | 466 kts | 166° |
| 2026-05-05 05:54 | -10.54731 | 108.46174 | 32893 ft | 465 kts | 166° |
| 2026-05-05 05:55 | -10.60948 | 108.47969 | 32889 ft | 464 kts | 166° |
| 2026-05-05 05:55 | -10.67144 | 108.49759 | 32887 ft | 462 kts | 166° |
| 2026-05-05 05:56 | -10.73319 | 108.51544 | 32902 ft | 461 kts | 166° |
| 2026-05-05 05:56 | -10.79489 | 108.53328 | 32889 ft | 460 kts | 166° |
| 2026-05-05 05:57 | -10.85646 | 108.55109 | 32891 ft | 460 kts | 166° |
| 2026-05-05 05:57 | -10.91803 | 108.56890 | 32896 ft | 460 kts | 166° |
| 2026-05-05 05:58 | -10.97971 | 108.58676 | 32898 ft | 461 kts | 166° |
| 2026-05-05 05:58 | -11.04106 | 108.60453 | 32894 ft | 462 kts | 166° |
| 2026-05-05 05:59 | -11.10295 | 108.62246 | 32907 ft | 462 kts | 166° |
| 2026-05-05 05:59 | -11.16501 | 108.64045 | 32893 ft | 463 kts | 166° |
| 2026-05-05 06:00 | -11.22705 | 108.65844 | 32903 ft | 464 kts | 166° |
| 2026-05-05 06:00 | -11.28907 | 108.67644 | 32895 ft | 464 kts | 166° |
| 2026-05-05 06:01 | -11.35075 | 108.69435 | 32903 ft | 463 kts | 166° |
| 2026-05-05 06:01 | -11.41281 | 108.71237 | 32899 ft | 463 kts | 166° |
| 2026-05-05 06:02 | -11.47472 | 108.73036 | 32899 ft | 462 kts | 167° |
| 2026-05-05 06:02 | -11.53644 | 108.74830 | 32893 ft | 460 kts | 167° |
| 2026-05-05 06:03 | -11.59790 | 108.76618 | 32895 ft | 458 kts | 167° |
| 2026-05-05 06:03 | -11.65900 | 108.78395 | 32900 ft | 456 kts | 167° |
| 2026-05-05 06:04 | -11.71998 | 108.80170 | 32903 ft | 454 kts | 167° |
| 2026-05-05 06:04 | -11.78034 | 108.81928 | 32912 ft | 453 kts | 167° |
| 2026-05-05 06:05 | -11.84096 | 108.83694 | 32909 ft | 453 kts | 167° |
| 2026-05-05 06:05 | -11.90165 | 108.85463 | 32905 ft | 453 kts | 167° |
| 2026-05-05 06:06 | -11.96233 | 108.87233 | 32907 ft | 454 kts | 167° |
| 2026-05-05 06:06 | -12.02296 | 108.89038 | 32906 ft | 455 kts | 165° |
| 2026-05-05 06:07 | -12.08306 | 108.91105 | 32903 ft | 456 kts | 163° |
| 2026-05-05 06:07 | -12.14313 | 108.93246 | 32915 ft | 457 kts | 164° |
| 2026-05-05 06:08 | -12.20334 | 108.95367 | 32910 ft | 457 kts | 164° |
| 2026-05-05 06:08 | -12.26366 | 108.97468 | 32910 ft | 458 kts | 164° |
| 2026-05-05 06:09 | -12.32405 | 108.99563 | 32908 ft | 458 kts | 164° |
| 2026-05-05 06:09 | -12.38405 | 109.01644 | 32909 ft | 458 kts | 164° |
| 2026-05-05 06:10 | -12.44433 | 109.03737 | 32913 ft | 458 kts | 165° |
| 2026-05-05 06:10 | -12.50464 | 109.05833 | 32908 ft | 457 kts | 165° |
| 2026-05-05 06:11 | -12.56482 | 109.07925 | 32908 ft | 457 kts | 165° |
| 2026-05-05 06:11 | -12.62515 | 109.10023 | 32908 ft | 456 kts | 165° |
| 2026-05-05 06:12 | -12.68521 | 109.12113 | 32909 ft | 456 kts | 165° |
| 2026-05-05 06:12 | -12.74516 | 109.14201 | 32910 ft | 455 kts | 165° |
| 2026-05-05 06:13 | -12.80508 | 109.16288 | 32920 ft | 454 kts | 165° |
| 2026-05-05 06:13 | -12.86494 | 109.18374 | 32911 ft | 454 kts | 165° |
| 2026-05-05 06:14 | -12.92472 | 109.20458 | 32914 ft | 453 kts | 165° |
| 2026-05-05 06:14 | -12.98443 | 109.22541 | 32914 ft | 453 kts | 165° |
| 2026-05-05 06:15 | -13.04402 | 109.24621 | 32917 ft | 453 kts | 165° |
| 2026-05-05 06:15 | -13.10332 | 109.26692 | 32919 ft | 452 kts | 165° |
| 2026-05-05 06:16 | -13.16292 | 109.28774 | 32916 ft | 453 kts | 165° |
| 2026-05-05 06:16 | -13.22274 | 109.30865 | 32920 ft | 453 kts | 165° |
| 2026-05-05 06:17 | -13.28213 | 109.32942 | 32918 ft | 454 kts | 165° |
| 2026-05-05 06:17 | -13.34188 | 109.35033 | 32920 ft | 454 kts | 165° |
| 2026-05-05 06:18 | -13.40174 | 109.37129 | 32922 ft | 455 kts | 165° |
| 2026-05-05 06:18 | -13.46159 | 109.39225 | 32927 ft | 455 kts | 165° |
| 2026-05-05 06:19 | -13.52165 | 109.41330 | 32920 ft | 456 kts | 165° |
| 2026-05-05 06:19 | -13.58174 | 109.43437 | 32922 ft | 456 kts | 165° |
| 2026-05-05 06:20 | -13.64174 | 109.45542 | 32924 ft | 456 kts | 165° |
| 2026-05-05 06:20 | -13.70189 | 109.47654 | 32924 ft | 456 kts | 165° |
| 2026-05-05 06:21 | -13.76155 | 109.49750 | 32920 ft | 456 kts | 165° |
| 2026-05-05 06:21 | -13.82170 | 109.51864 | 32920 ft | 455 kts | 165° |
| 2026-05-05 06:22 | -13.88173 | 109.53975 | 32922 ft | 455 kts | 165° |
| 2026-05-05 06:22 | -13.94160 | 109.56081 | 32923 ft | 454 kts | 165° |
| 2026-05-05 06:23 | -14.00111 | 109.58176 | 32922 ft | 454 kts | 165° |
| 2026-05-05 06:23 | -14.06079 | 109.60278 | 32923 ft | 453 kts | 165° |
| 2026-05-05 06:24 | -14.12058 | 109.62385 | 32929 ft | 453 kts | 166° |
| 2026-05-05 06:24 | -14.18035 | 109.64492 | 32927 ft | 453 kts | 166° |
| 2026-05-05 06:25 | -14.24002 | 109.66597 | 32930 ft | 453 kts | 166° |
| 2026-05-05 06:25 | -14.29933 | 109.68691 | 32928 ft | 453 kts | 166° |
| 2026-05-05 06:26 | -14.35908 | 109.70801 | 32927 ft | 454 kts | 166° |
| 2026-05-05 06:26 | -14.41892 | 109.72915 | 32929 ft | 454 kts | 166° |
| 2026-05-05 06:27 | -14.50862 | 109.76087 | 32931 ft | 455 kts | 166° |
| 2026-05-05 06:28 | -14.56852 | 109.78207 | 32935 ft | 455 kts | 166° |
| 2026-05-05 06:28 | -14.62810 | 109.80317 | 32936 ft | 455 kts | 166° |
| 2026-05-05 06:29 | -14.68814 | 109.82444 | 32933 ft | 455 kts | 166° |
| 2026-05-05 06:29 | -14.74812 | 109.84570 | 32935 ft | 455 kts | 166° |
| 2026-05-05 06:30 | -14.80808 | 109.86697 | 32933 ft | 456 kts | 166° |
| 2026-05-05 06:30 | -14.86805 | 109.88826 | 32935 ft | 455 kts | 166° |
| 2026-05-05 06:31 | -14.92802 | 109.90955 | 32934 ft | 455 kts | 166° |
| 2026-05-05 06:31 | -14.98790 | 109.93083 | 32934 ft | 455 kts | 166° |
| 2026-05-05 06:32 | -15.04779 | 109.95213 | 32936 ft | 455 kts | 166° |
| 2026-05-05 06:32 | -15.09745 | 109.96979 | 32943 ft | 455 kts | 166° |
| 2026-05-05 06:33 | -15.15735 | 109.99111 | 32936 ft | 455 kts | 166° |
| 2026-05-05 06:33 | -15.22687 | 110.01587 | 32938 ft | 454 kts | 166° |
| 2026-05-05 06:34 | -15.27694 | 110.03371 | 32943 ft | 454 kts | 166° |
| 2026-05-05 06:34 | -15.33673 | 110.05503 | 32942 ft | 454 kts | 166° |
| 2026-05-05 06:35 | -15.39613 | 110.07623 | 32942 ft | 454 kts | 166° |
| 2026-05-05 06:35 | -15.45599 | 110.09760 | 32941 ft | 455 kts | 167° |
| 2026-05-05 06:36 | -15.51577 | 110.11895 | 32945 ft | 455 kts | 167° |
| 2026-05-05 06:36 | -15.57575 | 110.14039 | 32954 ft | 455 kts | 167° |
| 2026-05-05 06:37 | -15.63571 | 110.16183 | 32947 ft | 456 kts | 167° |
| 2026-05-05 06:37 | -15.69564 | 110.18328 | 32948 ft | 456 kts | 167° |
| 2026-05-05 06:38 | -15.75518 | 110.20461 | 32954 ft | 456 kts | 167° |
| 2026-05-05 06:38 | -15.81564 | 110.22627 | 32948 ft | 456 kts | 167° |
| 2026-05-05 06:39 | -15.87524 | 110.24764 | 32949 ft | 456 kts | 167° |
| 2026-05-05 06:39 | -15.93525 | 110.26918 | 32954 ft | 456 kts | 167° |
| 2026-05-05 06:40 | -15.99520 | 110.29070 | 32954 ft | 456 kts | 167° |
| 2026-05-05 06:40 | -16.05521 | 110.31226 | 32965 ft | 456 kts | 167° |
| 2026-05-05 06:41 | -16.11523 | 110.33383 | 32951 ft | 456 kts | 167° |
| 2026-05-05 06:41 | -16.17522 | 110.35541 | 32956 ft | 456 kts | 167° |
| 2026-05-05 06:42 | -16.23523 | 110.37701 | 32957 ft | 456 kts | 167° |
| 2026-05-05 06:42 | -16.29525 | 110.39863 | 32957 ft | 456 kts | 167° |
| 2026-05-05 06:43 | -16.35517 | 110.42022 | 32957 ft | 456 kts | 167° |
| 2026-05-05 06:43 | -16.41516 | 110.44186 | 32958 ft | 456 kts | 168° |
| 2026-05-05 06:44 | -16.47490 | 110.46341 | 32945 ft | 456 kts | 168° |
| 2026-05-05 06:44 | -16.53487 | 110.48507 | 32959 ft | 456 kts | 168° |
| 2026-05-05 06:45 | -16.59482 | 110.50674 | 32955 ft | 455 kts | 168° |
| 2026-05-05 06:45 | -16.65461 | 110.52835 | 32954 ft | 455 kts | 168° |
| 2026-05-05 06:46 | -16.71403 | 110.54986 | 32969 ft | 455 kts | 168° |
| 2026-05-05 06:46 | -16.77377 | 110.57149 | 32961 ft | 453 kts | 168° |
| 2026-05-05 06:47 | -16.83338 | 110.59309 | 32963 ft | 452 kts | 168° |
| 2026-05-05 06:47 | -16.89275 | 110.61462 | 32964 ft | 451 kts | 168° |
| 2026-05-05 06:48 | -16.95195 | 110.63609 | 32962 ft | 450 kts | 168° |
| 2026-05-05 06:48 | -17.01065 | 110.65740 | 32966 ft | 449 kts | 168° |
| 2026-05-05 06:49 | -17.06964 | 110.67883 | 32970 ft | 448 kts | 168° |
| 2026-05-05 06:49 | -17.12856 | 110.70024 | 32964 ft | 448 kts | 168° |
| 2026-05-05 06:50 | -17.18762 | 110.72172 | 32971 ft | 449 kts | 168° |
| 2026-05-05 06:50 | -17.24660 | 110.74318 | 32970 ft | 449 kts | 168° |
| 2026-05-05 06:51 | -17.30529 | 110.76456 | 32980 ft | 450 kts | 168° |
| 2026-05-05 06:51 | -17.36441 | 110.78611 | 32974 ft | 450 kts | 169° |
| 2026-05-05 06:52 | -17.42400 | 110.80785 | 32965 ft | 450 kts | 169° |
| 2026-05-05 06:52 | -17.48282 | 110.82932 | 32965 ft | 450 kts | 169° |
| 2026-05-05 06:53 | -17.54197 | 110.85093 | 32973 ft | 449 kts | 169° |
| 2026-05-05 06:53 | -17.60099 | 110.87250 | 32971 ft | 449 kts | 169° |
| 2026-05-05 06:54 | -17.65983 | 110.89403 | 32974 ft | 448 kts | 169° |
| 2026-05-05 06:54 | -17.71848 | 110.91549 | 32971 ft | 448 kts | 169° |
| 2026-05-05 06:55 | -17.77727 | 110.93702 | 32973 ft | 447 kts | 169° |
| 2026-05-05 06:55 | -17.83600 | 110.95855 | 32975 ft | 447 kts | 169° |
| 2026-05-05 06:56 | -17.89471 | 110.98008 | 32979 ft | 447 kts | 169° |
| 2026-05-05 06:56 | -17.95340 | 111.00162 | 32997 ft | 447 kts | 169° |
| 2026-05-05 06:57 | -18.01188 | 111.02310 | 32981 ft | 447 kts | 169° |
| 2026-05-05 06:57 | -18.07064 | 111.04470 | 32974 ft | 447 kts | 169° |
| 2026-05-05 06:58 | -18.12950 | 111.06636 | 32987 ft | 447 kts | 169° |
| 2026-05-05 06:58 | -18.18830 | 111.08801 | 32986 ft | 447 kts | 169° |
| 2026-05-05 06:59 | -18.24710 | 111.10966 | 33019 ft | 447 kts | 169° |
| 2026-05-05 06:59 | -18.30551 | 111.13119 | 32990 ft | 448 kts | 169° |
| 2026-05-05 07:00 | -18.36440 | 111.15292 | 32985 ft | 448 kts | 169° |
| 2026-05-05 07:00 | -18.42323 | 111.17465 | 32987 ft | 448 kts | 169° |
| 2026-05-05 07:01 | -18.48211 | 111.19643 | 32988 ft | 448 kts | 169° |
| 2026-05-05 07:01 | -18.54097 | 111.21821 | 32986 ft | 449 kts | 169° |
| 2026-05-05 07:02 | -18.59987 | 111.24002 | 32994 ft | 449 kts | 170° |
| 2026-05-05 07:02 | -18.65882 | 111.26186 | 32988 ft | 449 kts | 170° |
| 2026-05-05 07:03 | -18.71786 | 111.28375 | 32992 ft | 449 kts | 170° |
| 2026-05-05 07:03 | -18.77685 | 111.30565 | 32992 ft | 449 kts | 170° |
| 2026-05-05 07:04 | -18.83586 | 111.32756 | 32995 ft | 449 kts | 170° |
| 2026-05-05 07:04 | -18.89468 | 111.34942 | 32999 ft | 450 kts | 170° |
| 2026-05-05 07:05 | -18.95368 | 111.37136 | 33000 ft | 450 kts | 170° |
| 2026-05-05 07:05 | -19.01277 | 111.39336 | 32997 ft | 450 kts | 170° |
| 2026-05-05 07:06 | -19.07137 | 111.41519 | 32998 ft | 449 kts | 170° |
| 2026-05-05 07:06 | -19.13039 | 111.43719 | 33001 ft | 449 kts | 170° |
| 2026-05-05 07:07 | -19.18929 | 111.45917 | 33010 ft | 449 kts | 171° |
| 2026-05-05 07:07 | -19.24830 | 111.48119 | 33005 ft | 449 kts | 171° |
| 2026-05-05 07:08 | -19.30731 | 111.50324 | 33006 ft | 449 kts | 171° |
| 2026-05-05 07:08 | -19.36624 | 111.52528 | 33005 ft | 449 kts | 171° |
| 2026-05-05 07:09 | -19.42517 | 111.54732 | 33012 ft | 449 kts | 171° |
| 2026-05-05 07:09 | -19.48412 | 111.56940 | 33026 ft | 449 kts | 171° |
| 2026-05-05 07:10 | -19.54309 | 111.59149 | 33021 ft | 450 kts | 171° |
| 2026-05-05 07:10 | -19.60206 | 111.61361 | 33011 ft | 450 kts | 171° |
| 2026-05-05 07:11 | -19.66107 | 111.63576 | 33018 ft | 450 kts | 171° |
| 2026-05-05 07:11 | -19.71975 | 111.65781 | 33018 ft | 450 kts | 171° |
| 2026-05-05 07:12 | -19.77878 | 111.68000 | 33039 ft | 450 kts | 171° |
| 2026-05-05 07:12 | -19.83793 | 111.70225 | 33025 ft | 451 kts | 171° |
| 2026-05-05 07:13 | -19.89713 | 111.72454 | 33019 ft | 451 kts | 171° |
| 2026-05-05 07:13 | -19.95632 | 111.74685 | 33019 ft | 451 kts | 171° |
| 2026-05-05 07:14 | -20.01510 | 111.76902 | 33018 ft | 451 kts | 171° |
| 2026-05-05 07:14 | -20.07419 | 111.79133 | 33024 ft | 450 kts | 171° |
| 2026-05-05 07:15 | -20.13335 | 111.81367 | 33016 ft | 450 kts | 171° |
| 2026-05-05 07:15 | -20.19232 | 111.83597 | 33020 ft | 450 kts | 171° |
| 2026-05-05 07:16 | -20.25142 | 111.85833 | 33020 ft | 450 kts | 171° |
| 2026-05-05 07:16 | -20.31046 | 111.88068 | 33019 ft | 450 kts | 171° |
| 2026-05-05 07:17 | -20.36955 | 111.90307 | 33047 ft | 450 kts | 171° |
| 2026-05-05 07:17 | -20.42861 | 111.92547 | 33029 ft | 450 kts | 171° |
| 2026-05-05 07:18 | -20.48732 | 111.94775 | 33030 ft | 451 kts | 171° |
| 2026-05-05 07:18 | -20.54644 | 111.97022 | 33023 ft | 451 kts | 171° |
| 2026-05-05 07:19 | -20.60558 | 111.99270 | 33027 ft | 451 kts | 171° |
| 2026-05-05 07:19 | -20.66468 | 112.01519 | 33053 ft | 451 kts | 171° |
| 2026-05-05 07:20 | -20.72384 | 112.03771 | 33038 ft | 451 kts | 171° |
| 2026-05-05 07:20 | -20.78302 | 112.06027 | 33030 ft | 451 kts | 171° |
| 2026-05-05 07:21 | -20.83215 | 112.07901 | 33026 ft | 451 kts | 171° |
| 2026-05-05 07:21 | -20.89139 | 112.10163 | 33029 ft | 451 kts | 171° |
| 2026-05-05 07:22 | -20.96016 | 112.12791 | 33061 ft | 451 kts | 171° |
| 2026-05-05 07:22 | -21.00937 | 112.14672 | 33038 ft | 452 kts | 171° |
| 2026-05-05 07:23 | -21.06857 | 112.16938 | 33032 ft | 452 kts | 171° |
| 2026-05-05 07:23 | -21.12791 | 112.19211 | 33032 ft | 452 kts | 171° |
| 2026-05-05 07:24 | -21.18710 | 112.21480 | 33035 ft | 451 kts | 171° |
| 2026-05-05 07:24 | -21.24629 | 112.23751 | 33063 ft | 451 kts | 171° |
| 2026-05-05 07:25 | -21.30545 | 112.26022 | 33044 ft | 452 kts | 171° |
| 2026-05-05 07:25 | -21.36423 | 112.28281 | 33030 ft | 451 kts | 171° |
| 2026-05-05 07:26 | -21.42338 | 112.30557 | 33047 ft | 451 kts | 171° |
| 2026-05-05 07:26 | -21.48245 | 112.32831 | 33045 ft | 451 kts | 171° |
| 2026-05-05 07:27 | -21.54153 | 112.35108 | 33075 ft | 450 kts | 171° |
| 2026-05-05 07:27 | -21.60038 | 112.37377 | 33047 ft | 450 kts | 171° |
| 2026-05-05 07:28 | -21.65927 | 112.39650 | 33041 ft | 450 kts | 171° |
| 2026-05-05 07:28 | -21.71824 | 112.41929 | 33040 ft | 450 kts | 171° |
| 2026-05-05 07:29 | -21.77705 | 112.44203 | 33047 ft | 449 kts | 171° |
| 2026-05-05 07:29 | -21.83603 | 112.46486 | 33068 ft | 449 kts | 172° |
| 2026-05-05 07:30 | -21.89445 | 112.48748 | 33054 ft | 449 kts | 172° |
| 2026-05-05 07:30 | -21.98265 | 112.52168 | 33051 ft | 448 kts | 172° |
| 2026-05-05 07:31 | -22.04130 | 112.54445 | 33048 ft | 448 kts | 172° |
| 2026-05-05 07:31 | -22.09996 | 112.56725 | 33057 ft | 448 kts | 172° |
| 2026-05-05 07:32 | -22.15865 | 112.59006 | 33053 ft | 448 kts | 172° |
| 2026-05-05 07:32 | -22.21720 | 112.61285 | 33050 ft | 448 kts | 172° |
| 2026-05-05 07:33 | -22.27552 | 112.63557 | 33051 ft | 447 kts | 172° |
| 2026-05-05 07:33 | -22.33406 | 112.65840 | 33051 ft | 447 kts | 172° |
| 2026-05-05 07:34 | -22.39256 | 112.68123 | 33052 ft | 446 kts | 172° |
| 2026-05-05 07:34 | -22.45108 | 112.70408 | 33057 ft | 447 kts | 172° |
| 2026-05-05 07:35 | -22.50952 | 112.72693 | 33057 ft | 447 kts | 172° |
| 2026-05-05 07:35 | -22.56799 | 112.74981 | 33055 ft | 446 kts | 172° |
| 2026-05-05 07:36 | -22.62652 | 112.77274 | 33056 ft | 446 kts | 172° |
| 2026-05-05 07:36 | -22.68484 | 112.79561 | 33093 ft | 446 kts | 172° |
| 2026-05-05 07:37 | -22.74330 | 112.81853 | 33065 ft | 446 kts | 172° |
| 2026-05-05 07:37 | -22.80166 | 112.84145 | 33058 ft | 446 kts | 172° |
| 2026-05-05 07:38 | -22.86008 | 112.86442 | 33061 ft | 446 kts | 172° |
| 2026-05-05 07:38 | -22.91800 | 112.88721 | 33061 ft | 446 kts | 172° |
| 2026-05-05 07:39 | -22.97636 | 112.91019 | 33063 ft | 446 kts | 172° |
| 2026-05-05 07:39 | -23.03477 | 112.93321 | 33063 ft | 446 kts | 172° |
| 2026-05-05 07:40 | -23.09304 | 112.95620 | 33063 ft | 446 kts | 172° |
| 2026-05-05 07:40 | -23.15140 | 112.97925 | 33063 ft | 446 kts | 172° |
| 2026-05-05 07:41 | -23.20969 | 113.00229 | 33063 ft | 446 kts | 172° |
| 2026-05-05 07:41 | -23.26810 | 113.02540 | 33071 ft | 446 kts | 172° |
| 2026-05-05 07:42 | -23.32642 | 113.04849 | 33063 ft | 446 kts | 172° |
| 2026-05-05 07:42 | -23.38482 | 113.07165 | 33059 ft | 446 kts | 172° |
| 2026-05-05 07:43 | -23.44299 | 113.09473 | 33064 ft | 445 kts | 172° |
| 2026-05-05 07:43 | -23.50073 | 113.11766 | 33059 ft | 444 kts | 172° |
| 2026-05-05 07:44 | -23.55883 | 113.14076 | 33071 ft | 444 kts | 172° |
| 2026-05-05 07:44 | -23.61687 | 113.16385 | 33069 ft | 443 kts | 172° |
| 2026-05-05 07:45 | -23.67483 | 113.18694 | 33063 ft | 443 kts | 172° |
| 2026-05-05 07:45 | -23.73266 | 113.20999 | 33067 ft | 442 kts | 172° |
| 2026-05-05 07:46 | -23.79038 | 113.23302 | 33068 ft | 441 kts | 172° |
| 2026-05-05 07:46 | -23.84769 | 113.25590 | 33064 ft | 441 kts | 171° |
| 2026-05-05 07:47 | -23.90526 | 113.27891 | 33062 ft | 440 kts | 171° |
| 2026-05-05 07:47 | -23.96289 | 113.30198 | 33069 ft | 440 kts | 171° |
| 2026-05-05 07:48 | -24.02031 | 113.32498 | 33066 ft | 439 kts | 171° |
| 2026-05-05 07:48 | -24.07733 | 113.34783 | 33096 ft | 439 kts | 171° |
| 2026-05-05 07:49 | -24.13468 | 113.37083 | 33073 ft | 439 kts | 170° |
| 2026-05-05 07:49 | -24.19198 | 113.39385 | 33065 ft | 439 kts | 170° |
| 2026-05-05 07:50 | -24.24933 | 113.41691 | 33067 ft | 439 kts | 170° |
| 2026-05-05 07:50 | -24.30665 | 113.43998 | 33062 ft | 439 kts | 171° |
| 2026-05-05 07:51 | -24.36409 | 113.46312 | 33101 ft | 439 kts | 169° |
| 2026-05-05 07:51 | -24.42149 | 113.48626 | 33080 ft | 439 kts | 169° |
| 2026-05-05 07:52 | -24.47891 | 113.50944 | 33067 ft | 440 kts | 169° |
| 2026-05-05 07:52 | -24.53633 | 113.53264 | 33068 ft | 439 kts | 169° |
| 2026-05-05 07:53 | -24.59361 | 113.55581 | 33070 ft | 439 kts | 169° |
| 2026-05-05 07:53 | -24.65063 | 113.57889 | 33082 ft | 439 kts | 168° |
| 2026-05-05 07:54 | -24.70789 | 113.60210 | 33071 ft | 438 kts | 168° |
| 2026-05-05 07:54 | -24.76516 | 113.62534 | 33072 ft | 438 kts | 168° |
| 2026-05-05 07:55 | -24.82228 | 113.64854 | 33078 ft | 437 kts | 168° |
| 2026-05-05 07:55 | -24.87910 | 113.67237 | 33074 ft | 441 kts | 163° |
| 2026-05-05 07:56 | -24.93180 | 113.70856 | 33092 ft | 452 kts | 152° |
| 2026-05-05 07:56 | -24.98323 | 113.74858 | 33080 ft | 452 kts | 152° |
| 2026-05-05 07:57 | -25.03466 | 113.78847 | 33084 ft | 451 kts | 152° |
| 2026-05-05 07:57 | -25.08605 | 113.82786 | 33087 ft | 450 kts | 152° |
| 2026-05-05 07:58 | -25.13743 | 113.86705 | 33089 ft | 449 kts | 152° |
| 2026-05-05 07:58 | -25.18881 | 113.90621 | 33100 ft | 448 kts | 151° |
| 2026-05-05 07:59 | -25.24013 | 113.94538 | 33092 ft | 448 kts | 151° |
| 2026-05-05 07:59 | -25.29134 | 113.98452 | 33089 ft | 447 kts | 151° |
| 2026-05-05 08:00 | -25.34242 | 114.02361 | 33099 ft | 446 kts | 151° |
| 2026-05-05 08:00 | -25.39309 | 114.06243 | 33099 ft | 446 kts | 151° |
| 2026-05-05 08:01 | -25.44413 | 114.10156 | 33094 ft | 445 kts | 150° |
| 2026-05-05 08:01 | -25.49494 | 114.14058 | 33089 ft | 444 kts | 150° |
| 2026-05-05 08:02 | -25.54571 | 114.17960 | 33098 ft | 443 kts | 150° |
| 2026-05-05 08:02 | -25.59631 | 114.21853 | 33100 ft | 442 kts | 150° |
| 2026-05-05 08:03 | -25.64670 | 114.25733 | 33100 ft | 441 kts | 150° |
| 2026-05-05 08:03 | -25.69674 | 114.29590 | 33102 ft | 441 kts | 150° |
| 2026-05-05 08:04 | -25.74711 | 114.33477 | 33105 ft | 441 kts | 150° |
| 2026-05-05 08:04 | -25.79749 | 114.37368 | 33103 ft | 441 kts | 150° |
| 2026-05-05 08:05 | -25.84796 | 114.41271 | 33105 ft | 442 kts | 150° |
| 2026-05-05 08:05 | -25.89843 | 114.45177 | 33124 ft | 442 kts | 149° |
| 2026-05-05 08:06 | -25.94886 | 114.49086 | 33114 ft | 442 kts | 149° |
| 2026-05-05 08:06 | -25.99933 | 114.53002 | 33112 ft | 442 kts | 149° |
| 2026-05-05 08:07 | -26.04969 | 114.56914 | 33112 ft | 441 kts | 149° |
| 2026-05-05 08:07 | -26.09957 | 114.60792 | 33120 ft | 439 kts | 149° |
| 2026-05-05 08:08 | -26.14960 | 114.64686 | 33135 ft | 438 kts | 148° |
| 2026-05-05 08:08 | -26.19949 | 114.68573 | 33123 ft | 437 kts | 148° |
| 2026-05-05 08:09 | -26.24913 | 114.72444 | 33123 ft | 435 kts | 148° |
| 2026-05-05 08:09 | -26.29861 | 114.76308 | 33127 ft | 433 kts | 148° |
| 2026-05-05 08:10 | -26.33953 | 114.79506 | 33127 ft | 432 kts | 148° |
| 2026-05-05 08:10 | -26.38862 | 114.83346 | 33148 ft | 431 kts | 148° |
| 2026-05-05 08:11 | -26.43778 | 114.87195 | 33136 ft | 431 kts | 148° |
| 2026-05-05 08:11 | -26.48653 | 114.91016 | 33140 ft | 431 kts | 148° |
| 2026-05-05 08:12 | -26.54390 | 114.95519 | 33142 ft | 431 kts | 148° |
| 2026-05-05 08:12 | -26.58473 | 114.98727 | 33145 ft | 432 kts | 148° |
| 2026-05-05 08:13 | -26.63391 | 115.02594 | 33154 ft | 432 kts | 147° |
| 2026-05-05 08:13 | -26.68314 | 115.06470 | 33149 ft | 433 kts | 147° |
| 2026-05-05 08:14 | -26.73237 | 115.10351 | 33149 ft | 433 kts | 147° |
| 2026-05-05 08:14 | -26.78175 | 115.14247 | 33154 ft | 434 kts | 147° |
| 2026-05-05 08:15 | -26.83099 | 115.18136 | 33156 ft | 434 kts | 147° |
| 2026-05-05 08:15 | -26.88031 | 115.22036 | 33161 ft | 434 kts | 147° |
| 2026-05-05 08:16 | -26.92962 | 115.25940 | 33160 ft | 434 kts | 147° |
| 2026-05-05 08:16 | -26.97887 | 115.29842 | 33165 ft | 434 kts | 147° |
| 2026-05-05 08:17 | -27.02783 | 115.33727 | 33164 ft | 433 kts | 147° |
| 2026-05-05 08:17 | -27.07710 | 115.37640 | 33168 ft | 433 kts | 147° |
| 2026-05-05 08:18 | -27.12638 | 115.41558 | 33173 ft | 433 kts | 147° |
| 2026-05-05 08:18 | -27.17556 | 115.45472 | 33167 ft | 433 kts | 147° |
| 2026-05-05 08:19 | -27.22445 | 115.49368 | 33167 ft | 433 kts | 147° |
| 2026-05-05 08:19 | -27.27355 | 115.53286 | 33172 ft | 433 kts | 147° |
| 2026-05-05 08:20 | -27.32265 | 115.57207 | 33172 ft | 433 kts | 147° |
| 2026-05-05 08:20 | -27.37187 | 115.61140 | 33180 ft | 433 kts | 148° |
| 2026-05-05 08:21 | -27.42387 | 115.64502 | 33182 ft | 430 kts | 156° |
| 2026-05-05 08:21 | -27.47753 | 115.67486 | 33181 ft | 430 kts | 156° |
| 2026-05-05 08:22 | -27.53092 | 115.70464 | 33184 ft | 431 kts | 156° |
| 2026-05-05 08:22 | -27.58449 | 115.73507 | 33185 ft | 431 kts | 156° |
| 2026-05-05 08:23 | -27.63796 | 115.76573 | 33188 ft | 431 kts | 156° |
| 2026-05-05 08:23 | -27.69143 | 115.79649 | 33188 ft | 432 kts | 156° |
| 2026-05-05 08:24 | -27.74504 | 115.82737 | 33191 ft | 432 kts | 156° |
| 2026-05-05 08:24 | -27.79859 | 115.85824 | 33189 ft | 432 kts | 156° |
| 2026-05-05 08:25 | -27.85174 | 115.88891 | 33202 ft | 432 kts | 156° |
| 2026-05-05 08:25 | -27.90529 | 115.91984 | 33194 ft | 432 kts | 156° |
| 2026-05-05 08:26 | -27.95881 | 115.95078 | 33203 ft | 432 kts | 156° |
| 2026-05-05 08:26 | -28.01233 | 115.98176 | 33198 ft | 432 kts | 156° |
| 2026-05-05 08:27 | -28.06581 | 116.01276 | 33203 ft | 431 kts | 156° |
| 2026-05-05 08:27 | -28.11921 | 116.04374 | 33209 ft | 431 kts | 156° |
| 2026-05-05 08:28 | -28.17223 | 116.07454 | 33206 ft | 431 kts | 156° |
| 2026-05-05 08:28 | -28.22563 | 116.10559 | 33207 ft | 431 kts | 156° |
| 2026-05-05 08:29 | -28.27898 | 116.13665 | 33205 ft | 430 kts | 156° |
| 2026-05-05 08:30 | -28.35888 | 116.18323 | 33210 ft | 430 kts | 156° |
| 2026-05-05 08:30 | -28.41212 | 116.21431 | 33215 ft | 430 kts | 156° |
| 2026-05-05 08:31 | -28.46502 | 116.24523 | 33216 ft | 430 kts | 156° |
| 2026-05-05 08:31 | -28.51821 | 116.27635 | 33223 ft | 430 kts | 156° |
| 2026-05-05 08:32 | -28.57138 | 116.30750 | 33227 ft | 430 kts | 156° |
| 2026-05-05 08:32 | -28.62456 | 116.33869 | 33218 ft | 430 kts | 156° |
| 2026-05-05 08:33 | -28.67776 | 116.36993 | 33226 ft | 429 kts | 156° |
| 2026-05-05 08:33 | -28.73089 | 116.40116 | 33227 ft | 429 kts | 156° |
| 2026-05-05 08:34 | -28.78391 | 116.43236 | 33237 ft | 429 kts | 156° |
| 2026-05-05 08:34 | -28.83700 | 116.46364 | 33220 ft | 430 kts | 156° |
| 2026-05-05 08:35 | -28.89015 | 116.49500 | 33226 ft | 430 kts | 156° |
| 2026-05-05 08:35 | -28.94334 | 116.52641 | 33241 ft | 431 kts | 156° |
| 2026-05-05 08:36 | -28.99623 | 116.55768 | 33225 ft | 431 kts | 156° |
| 2026-05-05 08:36 | -29.04961 | 116.58929 | 33231 ft | 432 kts | 156° |
| 2026-05-05 08:37 | -29.10307 | 116.62097 | 33239 ft | 432 kts | 156° |
| 2026-05-05 08:37 | -29.15671 | 116.65222 | 33235 ft | 431 kts | 161° |
| 2026-05-05 08:38 | -29.21377 | 116.66806 | 33238 ft | 422 kts | 179° |
| 2026-05-05 08:38 | -29.27224 | 116.66747 | 33250 ft | 419 kts | 185° |
| 2026-05-05 08:39 | -29.33053 | 116.66524 | 33240 ft | 419 kts | 185° |
| 2026-05-05 08:39 | -29.38897 | 116.66329 | 33247 ft | 420 kts | 185° |
| 2026-05-05 08:40 | -29.44745 | 116.66162 | 33249 ft | 420 kts | 185° |
| 2026-05-05 08:40 | -29.50546 | 116.66006 | 33245 ft | 419 kts | 185° |
| 2026-05-05 08:41 | -29.56379 | 116.65851 | 33255 ft | 419 kts | 185° |
| 2026-05-05 08:41 | -29.62221 | 116.65695 | 33248 ft | 419 kts | 185° |
| 2026-05-05 08:42 | -29.68044 | 116.65539 | 33250 ft | 418 kts | 185° |
| 2026-05-05 08:42 | -29.73866 | 116.65383 | 33252 ft | 418 kts | 185° |
| 2026-05-05 08:43 | -29.79640 | 116.65230 | 33243 ft | 405 kts | 185° |
| 2026-05-05 08:43 | -29.82394 | 116.65159 | 32974 ft | 398 kts | 185° |
| 2026-05-05 08:43 | -29.85139 | 116.65087 | 32716 ft | 391 kts | 185° |
| 2026-05-05 08:43 | -29.87850 | 116.65014 | 32357 ft | 388 kts | 185° |
| 2026-05-05 08:44 | -29.90539 | 116.64940 | 32010 ft | 385 kts | 185° |
| 2026-05-05 08:44 | -29.93213 | 116.64867 | 31654 ft | 382 kts | 185° |
| 2026-05-05 08:44 | -29.95864 | 116.64795 | 31298 ft | 380 kts | 185° |
| 2026-05-05 08:44 | -29.98498 | 116.64723 | 30959 ft | 378 kts | 184° |
| 2026-05-05 08:45 | -30.01128 | 116.64651 | 30600 ft | 376 kts | 184° |
| 2026-05-05 08:45 | -30.03735 | 116.64581 | 30245 ft | 374 kts | 184° |
| 2026-05-05 08:45 | -30.06327 | 116.64510 | 29831 ft | 372 kts | 184° |
| 2026-05-05 08:45 | -30.08904 | 116.64441 | 29439 ft | 369 kts | 184° |
| 2026-05-05 08:46 | -30.11436 | 116.64372 | 29082 ft | 365 kts | 184° |
| 2026-05-05 08:46 | -30.13967 | 116.64304 | 28708 ft | 363 kts | 184° |
| 2026-05-05 08:46 | -30.16479 | 116.64236 | 28347 ft | 360 kts | 183° |
| 2026-05-05 08:46 | -30.19009 | 116.64167 | 27992 ft | 357 kts | 183° |
| 2026-05-05 08:47 | -30.21448 | 116.64101 | 27654 ft | 355 kts | 183° |
| 2026-05-05 08:47 | -30.23907 | 116.64034 | 27299 ft | 352 kts | 183° |
| 2026-05-05 08:47 | -30.26347 | 116.63968 | 26956 ft | 350 kts | 183° |
| 2026-05-05 08:47 | -30.28774 | 116.63902 | 26619 ft | 348 kts | 183° |
| 2026-05-05 08:48 | -30.31187 | 116.63836 | 26278 ft | 346 kts | 183° |
| 2026-05-05 08:48 | -30.33580 | 116.63771 | 25937 ft | 344 kts | 183° |
| 2026-05-05 08:48 | -30.35969 | 116.63706 | 25601 ft | 342 kts | 183° |
| 2026-05-05 08:48 | -30.38344 | 116.63642 | 25265 ft | 341 kts | 183° |
| 2026-05-05 08:49 | -30.40706 | 116.63577 | 24932 ft | 340 kts | 182° |
| 2026-05-05 08:49 | -30.43070 | 116.63512 | 24588 ft | 339 kts | 182° |
| 2026-05-05 08:49 | -30.45424 | 116.63448 | 24246 ft | 338 kts | 182° |
| 2026-05-05 08:49 | -30.47778 | 116.63384 | 23894 ft | 338 kts | 182° |
| 2026-05-05 08:50 | -30.50130 | 116.63320 | 23518 ft | 337 kts | 182° |
| 2026-05-05 08:50 | -30.52470 | 116.63256 | 23151 ft | 335 kts | 182° |
| 2026-05-05 08:50 | -30.54794 | 116.63147 | 22797 ft | 333 kts | 187° |
| 2026-05-05 08:50 | -30.57065 | 116.62605 | 22257 ft | 336 kts | 198° |
| 2026-05-05 08:51 | -30.59284 | 116.61750 | 21880 ft | 336 kts | 199° |
| 2026-05-05 08:51 | -30.61488 | 116.60863 | 21528 ft | 334 kts | 199° |
| 2026-05-05 08:51 | -30.63682 | 116.59982 | 21185 ft | 332 kts | 199° |
| 2026-05-05 08:51 | -30.65835 | 116.59126 | 20864 ft | 330 kts | 199° |
| 2026-05-05 08:52 | -30.68004 | 116.58272 | 20539 ft | 328 kts | 199° |
| 2026-05-05 08:52 | -30.70169 | 116.57425 | 20212 ft | 327 kts | 199° |
| 2026-05-05 08:52 | -30.72322 | 116.56585 | 19896 ft | 325 kts | 199° |
| 2026-05-05 08:52 | -30.74464 | 116.55751 | 19572 ft | 323 kts | 199° |
| 2026-05-05 08:53 | -30.76594 | 116.54921 | 19256 ft | 322 kts | 199° |
| 2026-05-05 08:53 | -30.78715 | 116.54095 | 18938 ft | 321 kts | 199° |
| 2026-05-05 08:53 | -30.80828 | 116.53271 | 18633 ft | 319 kts | 199° |
| 2026-05-05 08:53 | -30.82904 | 116.52462 | 18299 ft | 318 kts | 199° |
| 2026-05-05 08:54 | -30.84996 | 116.51645 | 17956 ft | 316 kts | 199° |
| 2026-05-05 08:54 | -30.87074 | 116.50834 | 17632 ft | 314 kts | 199° |
| 2026-05-05 08:54 | -30.89141 | 116.50026 | 17311 ft | 312 kts | 198° |
| 2026-05-05 08:54 | -30.91192 | 116.49224 | 16997 ft | 310 kts | 198° |
| 2026-05-05 08:55 | -30.93230 | 116.48427 | 16685 ft | 308 kts | 198° |
| 2026-05-05 08:55 | -30.95255 | 116.47635 | 16381 ft | 306 kts | 197° |
| 2026-05-05 08:55 | -30.97268 | 116.46847 | 16075 ft | 304 kts | 197° |
| 2026-05-05 08:55 | -30.99270 | 116.46064 | 15762 ft | 302 kts | 197° |
| 2026-05-05 08:56 | -31.01261 | 116.45284 | 15469 ft | 301 kts | 197° |
| 2026-05-05 08:56 | -31.03240 | 116.44509 | 15165 ft | 300 kts | 197° |
| 2026-05-05 08:56 | -31.05213 | 116.43736 | 14864 ft | 299 kts | 197° |
| 2026-05-05 08:56 | -31.06513 | 116.43226 | 14661 ft | 298 kts | 196° |
| 2026-05-05 08:57 | -31.09116 | 116.42205 | 14258 ft | 297 kts | 196° |
| 2026-05-05 08:57 | -31.11071 | 116.41438 | 13948 ft | 296 kts | 196° |
| 2026-05-05 08:57 | -31.13021 | 116.40672 | 13610 ft | 295 kts | 196° |
| 2026-05-05 08:57 | -31.14959 | 116.39911 | 13302 ft | 293 kts | 196° |
| 2026-05-05 08:58 | -31.16237 | 116.39409 | 13098 ft | 292 kts | 196° |
| 2026-05-05 08:58 | -31.18161 | 116.38652 | 12795 ft | 290 kts | 196° |
| 2026-05-05 08:58 | -31.20067 | 116.37902 | 12500 ft | 288 kts | 196° |
| 2026-05-05 08:58 | -31.22574 | 116.36915 | 12108 ft | 286 kts | 196° |
| 2026-05-05 08:59 | -31.23850 | 116.36414 | 11911 ft | 285 kts | 196° |
| 2026-05-05 08:59 | -31.25720 | 116.35677 | 11613 ft | 283 kts | 196° |
| 2026-05-05 08:59 | -31.27586 | 116.34942 | 11339 ft | 282 kts | 196° |
| 2026-05-05 08:59 | -31.29441 | 116.34211 | 11052 ft | 281 kts | 196° |
| 2026-05-05 09:00 | -31.31292 | 116.33481 | 10759 ft | 280 kts | 196° |
| 2026-05-05 09:00 | -31.33117 | 116.32761 | 10261 ft | 280 kts | 196° |
| 2026-05-05 09:00 | -31.34944 | 116.32039 | 10056 ft | 268 kts | 196° |
| 2026-05-05 09:00 | -31.36665 | 116.31359 | 9760 ft | 261 kts | 196° |
| 2026-05-05 09:01 | -31.38362 | 116.30689 | 9484 ft | 253 kts | 196° |
| 2026-05-05 09:01 | -31.40033 | 116.30029 | 9236 ft | 255 kts | 196° |
| 2026-05-05 09:01 | -31.41734 | 116.29348 | 8985 ft | 262 kts | 199° |
| 2026-05-05 09:01 | -31.43414 | 116.28412 | 8735 ft | 271 kts | 206° |
| 2026-05-05 09:02 | -31.45083 | 116.27326 | 8467 ft | 277 kts | 207° |
| 2026-05-05 09:02 | -31.46773 | 116.26204 | 8198 ft | 279 kts | 207° |
| 2026-05-05 09:02 | -31.48464 | 116.25089 | 7908 ft | 278 kts | 207° |
| 2026-05-05 09:02 | -31.50147 | 116.23990 | 7631 ft | 276 kts | 207° |
| 2026-05-05 09:03 | -31.51819 | 116.22907 | 7363 ft | 274 kts | 207° |
| 2026-05-05 09:03 | -31.53460 | 116.21849 | 7105 ft | 272 kts | 207° |
| 2026-05-05 09:03 | -31.55111 | 116.20787 | 6853 ft | 270 kts | 207° |
| 2026-05-05 09:03 | -31.56758 | 116.19729 | 6574 ft | 269 kts | 206° |
| 2026-05-05 09:04 | -31.58395 | 116.18680 | 6302 ft | 267 kts | 207° |
| 2026-05-05 09:04 | -31.60017 | 116.17640 | 6039 ft | 265 kts | 206° |
| 2026-05-05 09:04 | -31.61627 | 116.16607 | 5784 ft | 263 kts | 206° |
| 2026-05-05 09:04 | -31.63228 | 116.15581 | 5531 ft | 262 kts | 207° |
| 2026-05-05 09:05 | -31.64820 | 116.14559 | 5262 ft | 260 kts | 206° |
| 2026-05-05 09:05 | -31.66404 | 116.13542 | 4999 ft | 258 kts | 207° |
| 2026-05-05 09:05 | -31.67973 | 116.12533 | 4756 ft | 256 kts | 207° |
| 2026-05-05 09:05 | -31.69526 | 116.11535 | 4483 ft | 252 kts | 206° |
| 2026-05-05 09:06 | -31.71043 | 116.10559 | 4238 ft | 246 kts | 207° |
| 2026-05-05 09:06 | -31.72539 | 116.09597 | 4008 ft | 244 kts | 207° |
| 2026-05-05 09:06 | -31.74024 | 116.08642 | 3778 ft | 243 kts | 207° |
| 2026-05-05 09:06 | -31.75434 | 116.07626 | 3515 ft | 239 kts | 220° |
| 2026-05-05 09:07 | -31.76446 | 116.06149 | 3344 ft | 225 kts | 232° |
| 2026-05-05 09:07 | -31.77354 | 116.04700 | 3086 ft | 215 kts | 231° |
| 2026-05-05 09:07 | -31.78236 | 116.03323 | 2895 ft | 207 kts | 230° |
| 2026-05-05 09:07 | -31.79089 | 116.01999 | 2711 ft | 200 kts | 230° |
| 2026-05-05 09:08 | -31.79974 | 116.00782 | 2511 ft | 191 kts | 214° |
| 2026-05-05 09:08 | -31.81156 | 116.00302 | 2389 ft | 179 kts | 189° |
| 2026-05-05 09:08 | -31.82393 | 115.99930 | 2139 ft | 184 kts | 192° |
| 2026-05-05 09:08 | -31.83626 | 115.99551 | 1877 ft | 180 kts | 191° |
| 2026-05-05 09:09 | -31.84812 | 115.99202 | 1661 ft | 171 kts | 191° |
| 2026-05-05 09:09 | -31.85940 | 115.98871 | 1438 ft | 162 kts | 191° |
| 2026-05-05 09:09 | -31.87002 | 115.98561 | 1246 ft | 155 kts | 192° |
| 2026-05-05 09:09 | -31.88030 | 115.98268 | 1024 ft | 150 kts | 192° |
| 2026-05-05 09:10 | -31.89018 | 115.97973 | 807 ft | 148 kts | 193° |
| 2026-05-05 09:10 | -31.90006 | 115.97682 | 602 ft | 145 kts | 192° |
| 2026-05-05 09:10 | -31.90982 | 115.97410 | 429 ft | 145 kts | 192° |
| 2026-05-05 09:10 | -31.91986 | 115.97112 | 262 ft | 149 kts | 192° |
| 2026-05-05 09:11 | -31.92989 | 115.96812 | 71 ft | 149 kts | 191° |
| 2026-05-05 09:11 | -31.93915 | 115.96541 | 60 ft | 116 kts | 194° |
| 2026-05-05 09:11 | -31.94366 | 115.96409 | 57 ft | 21 kts | 195° |
| 2026-05-05 09:11 | -31.94472 | 115.96488 | 59 ft | 20 kts | 104° |
| 2026-05-05 09:12 | -31.94505 | 115.96645 | 62 ft | 19 kts | 100° |
| 2026-05-05 09:12 | -31.94422 | 115.96743 | 65 ft | 19 kts | 11° |
| 2026-05-05 09:12 | -31.94276 | 115.96783 | 58 ft | 26 kts | 15° |
| 2026-05-05 09:12 | -31.94101 | 115.96838 | 62 ft | 25 kts | 14° |
| 2026-05-05 09:13 | -31.93961 | 115.96879 | 59 ft | 17 kts | 14° |
| 2026-05-05 09:13 | -31.93919 | 115.96961 | 61 ft | 10 kts | 96° |
| 2026-05-05 09:13 | -31.93970 | 115.96986 | 62 ft | 10 kts | 199° |
| 2026-05-05 09:13 | -31.94018 | 115.96967 | 60 ft | 3 kts | 199° |
| 2026-05-05 09:14 | -31.94024 | 115.96964 | 60 ft | 0 kts | 199° |